createdAt,value
2023-03-18T00:00:49.199Z,7.70
2023-03-18T00:03:15.931Z,7.80
2023-03-18T00:05:42.556Z,7.70
2023-03-18T00:08:09.542Z,7.70
2023-03-18T00:10:36.157Z,7.60
2023-03-18T00:13:04.455Z,7.70
2023-03-18T00:15:31.350Z,7.70
2023-03-18T00:17:59.785Z,7.70
2023-03-18T00:20:38.505Z,7.70
2023-03-18T00:23:11.391Z,7.80
2023-03-18T00:25:38.824Z,7.70
2023-03-18T00:28:06.996Z,7.70
2023-03-18T00:30:34.896Z,7.60
2023-03-18T00:33:01.678Z,7.60
2023-03-18T00:35:30.485Z,7.70
2023-03-18T00:37:58.725Z,7.50
2023-03-18T00:40:42.871Z,7.50
2023-03-18T00:43:12.869Z,7.50
2023-03-18T00:45:40.323Z,7.50
2023-03-18T00:48:07.669Z,7.60
2023-03-18T00:50:35.313Z,7.60
2023-03-18T00:53:01.935Z,7.50
2023-03-18T00:55:28.752Z,7.50
2023-03-18T00:57:55.418Z,7.50
2023-03-18T01:00:22.155Z,7.50
2023-03-18T01:02:51.777Z,7.40
2023-03-18T01:05:18.768Z,7.40
2023-03-18T01:07:45.420Z,7.30
2023-03-18T01:10:12.823Z,7.30
2023-03-18T01:12:41.070Z,7.20
2023-03-18T01:15:10.578Z,7.30
2023-03-18T01:17:37.521Z,7.40
2023-03-18T01:20:04.377Z,7.30
2023-03-18T01:22:30.979Z,7.20
2023-03-18T01:24:58.650Z,7.20
2023-03-18T01:27:25.191Z,7.20
2023-03-18T01:29:51.785Z,7.10
2023-03-18T01:32:18.377Z,7.10
2023-03-18T01:34:44.983Z,7.10
2023-03-18T01:37:11.674Z,7.10
2023-03-18T01:39:38.319Z,7.10
2023-03-18T01:42:06.348Z,7.10
2023-03-18T01:44:32.901Z,7.10
2023-03-18T01:46:59.563Z,7.00
2023-03-18T01:49:26.167Z,7.00
2023-03-18T01:51:57.596Z,7.00
2023-03-18T01:54:25.854Z,7.00
2023-03-18T01:56:53.878Z,7.00
2023-03-18T01:59:22.446Z,7.00
2023-03-18T02:01:53.076Z,7.00
2023-03-18T02:04:21.348Z,7.00
2023-03-18T02:06:47.949Z,7.00
2023-03-18T02:09:14.669Z,7.00
2023-03-18T02:11:42.844Z,7.00
2023-03-18T02:14:10.633Z,7.00
2023-03-18T02:16:40.344Z,7.00
2023-03-18T02:19:22.496Z,6.90
2023-03-18T02:22:07.723Z,6.90
2023-03-18T02:24:55.478Z,6.90
2023-03-18T02:27:22.829Z,6.90
2023-03-18T02:29:53.220Z,6.90
2023-03-18T02:32:20.722Z,6.90
2023-03-18T02:34:49.091Z,6.90
2023-03-18T02:37:16.061Z,6.90
2023-03-18T02:39:42.697Z,6.90
2023-03-18T02:42:16.913Z,7.00
2023-03-18T02:44:45.845Z,6.90
2023-03-18T02:47:15.314Z,6.90
2023-03-18T02:49:41.891Z,6.90
2023-03-18T02:52:14.536Z,6.90
2023-03-18T02:54:41.291Z,6.90
2023-03-18T02:57:07.880Z,6.80
2023-03-18T02:59:34.573Z,6.90
2023-03-18T03:02:01.463Z,6.90
2023-03-18T03:04:28.557Z,6.90
2023-03-18T03:06:56.810Z,6.90
2023-03-18T03:09:23.399Z,6.90
2023-03-18T03:11:49.985Z,6.90
2023-03-18T03:14:16.809Z,6.90
2023-03-18T03:16:43.795Z,6.90
2023-03-18T03:19:10.464Z,6.90
2023-03-18T03:21:37.363Z,6.90
2023-03-18T03:24:04.639Z,6.90
2023-03-18T03:26:31.314Z,6.90
2023-03-18T03:28:58.377Z,6.80
2023-03-18T03:31:25.177Z,6.80
2023-03-18T03:33:52.619Z,6.70
2023-03-18T03:36:19.290Z,6.70
2023-03-18T03:38:45.881Z,6.80
2023-03-18T03:41:12.978Z,6.80
2023-03-18T03:43:40.275Z,6.80
2023-03-18T03:46:07.498Z,6.70
2023-03-18T03:48:34.107Z,6.70
2023-03-18T03:51:01.475Z,6.70
2023-03-18T03:53:28.217Z,6.70
2023-03-18T03:55:56.390Z,6.70
2023-03-18T03:58:24.537Z,6.70
2023-03-18T04:00:51.246Z,6.70
2023-03-18T04:03:18.088Z,6.70
2023-03-18T04:05:44.645Z,6.60
2023-03-18T04:08:11.386Z,6.60
2023-03-18T04:10:38.324Z,6.60
2023-03-18T04:13:05.509Z,6.60
2023-03-18T04:15:32.095Z,6.60
2023-03-18T04:18:02.146Z,6.60
2023-03-18T04:20:28.689Z,6.60
2023-03-18T04:22:55.364Z,6.70
2023-03-18T04:25:22.260Z,6.60
2023-03-18T04:27:48.867Z,6.60
2023-03-18T04:30:15.558Z,6.60
2023-03-18T04:32:42.143Z,6.60
2023-03-18T04:35:09.602Z,6.70
2023-03-18T04:37:37.436Z,6.50
2023-03-18T04:40:07.819Z,6.70
2023-03-18T04:42:34.374Z,6.60
2023-03-18T04:45:01.835Z,6.60
2023-03-18T04:47:28.406Z,6.60
2023-03-18T04:49:55.096Z,6.70
2023-03-18T04:52:21.686Z,6.60
2023-03-18T04:54:48.330Z,6.50
2023-03-18T04:57:16.566Z,6.60
2023-03-18T04:59:43.514Z,6.50
2023-03-18T05:02:10.462Z,6.50
2023-03-18T05:04:37.628Z,6.50
2023-03-18T05:07:04.198Z,6.50
2023-03-18T05:09:31.388Z,6.70
2023-03-18T05:11:58.056Z,6.50
2023-03-18T05:14:24.670Z,6.50
2023-03-18T05:16:51.601Z,6.50
2023-03-18T05:19:18.346Z,6.60
2023-03-18T05:21:45.200Z,6.50
2023-03-18T05:24:11.838Z,6.50
2023-03-18T05:26:38.765Z,6.50
2023-03-18T05:29:05.362Z,6.50
2023-03-18T05:31:32.076Z,6.50
2023-03-18T05:33:58.757Z,6.40
2023-03-18T05:36:25.414Z,6.40
2023-03-18T05:38:51.956Z,6.40
2023-03-18T05:41:18.539Z,6.40
2023-03-18T05:43:45.142Z,6.40
2023-03-18T05:46:11.933Z,6.50
2023-03-18T05:48:38.812Z,6.50
2023-03-18T05:51:05.979Z,6.50
2023-03-18T05:53:32.598Z,6.50
2023-03-18T05:55:59.874Z,6.50
2023-03-18T05:58:31.138Z,6.50
2023-03-18T06:00:58.885Z,6.60
2023-03-18T06:03:25.878Z,6.60
2023-03-18T06:05:52.948Z,6.80
2023-03-18T06:08:19.571Z,6.70
2023-03-18T06:10:46.101Z,6.80
2023-03-18T06:13:12.714Z,6.70
2023-03-18T06:15:39.496Z,6.90
2023-03-18T06:18:06.044Z,6.80
2023-03-18T06:20:33.600Z,6.90
2023-03-18T06:23:00.194Z,7.00
2023-03-18T06:25:26.840Z,7.00
2023-03-18T06:27:53.745Z,7.00
2023-03-18T06:30:20.587Z,7.20
2023-03-18T06:32:47.269Z,7.20
2023-03-18T06:35:14.680Z,7.20
2023-03-18T06:37:41.339Z,7.40
2023-03-18T06:40:09.023Z,7.40
2023-03-18T06:42:35.647Z,7.50
2023-03-18T06:45:02.341Z,7.60
2023-03-18T06:47:28.899Z,7.70
2023-03-18T06:49:56.671Z,7.80
2023-03-18T06:52:23.472Z,7.80
2023-03-18T06:54:50.512Z,7.90
2023-03-18T06:57:17.219Z,8.00
2023-03-18T06:59:43.850Z,8.10
2023-03-18T07:02:10.924Z,8.10
2023-03-18T07:04:37.695Z,8.20
2023-03-18T07:07:04.678Z,8.30
2023-03-18T07:09:31.332Z,8.30
2023-03-18T07:11:58.625Z,8.40
2023-03-18T07:14:25.311Z,8.50
2023-03-18T07:16:52.078Z,8.50
2023-03-18T07:19:18.623Z,8.70
2023-03-18T07:21:46.256Z,8.60
2023-03-18T07:24:12.924Z,8.80
2023-03-18T07:26:39.559Z,8.90
2023-03-18T07:29:06.146Z,9.20
2023-03-18T07:31:32.849Z,9.30
2023-03-18T07:33:59.451Z,9.50
2023-03-18T07:36:26.877Z,9.60
2023-03-18T07:38:53.583Z,9.80
2023-03-18T07:41:20.276Z,10.00
2023-03-18T07:43:46.827Z,10.30
2023-03-18T07:46:13.436Z,10.70
2023-03-18T07:48:40.127Z,11.30
2023-03-18T07:51:06.830Z,11.60
2023-03-18T07:53:33.862Z,11.90
2023-03-18T07:56:00.765Z,12.00
2023-03-18T07:58:27.365Z,12.10
2023-03-18T08:00:54.227Z,12.30
2023-03-18T08:03:20.874Z,12.70
2023-03-18T08:05:47.589Z,13.00
2023-03-18T08:08:14.142Z,13.30
2023-03-18T08:10:40.695Z,13.30
2023-03-18T08:13:07.332Z,13.60
2023-03-18T08:15:34.554Z,13.60
2023-03-18T08:18:01.704Z,13.60
2023-03-18T08:20:28.736Z,14.00
2023-03-18T08:22:56.050Z,14.20
2023-03-18T08:25:23.528Z,14.50
2023-03-18T08:27:50.646Z,14.90
2023-03-18T08:30:17.415Z,15.00
2023-03-18T08:32:44.329Z,15.40
2023-03-18T08:35:12.666Z,15.70
2023-03-18T08:37:39.281Z,16.60
2023-03-18T08:40:06.633Z,16.70
2023-03-18T08:42:33.185Z,16.90
2023-03-18T08:44:59.716Z,16.90
2023-03-18T08:47:27.419Z,17.10
2023-03-18T08:49:53.958Z,17.20
2023-03-18T08:52:20.582Z,17.60
2023-03-18T08:54:47.781Z,18.50
2023-03-18T08:57:14.385Z,19.00
2023-03-18T08:59:40.947Z,19.30
2023-03-18T09:02:08.221Z,20.10
2023-03-18T09:04:34.788Z,20.80
2023-03-18T09:07:01.489Z,21.80
2023-03-18T09:09:42.749Z,22.60
2023-03-18T09:12:11.893Z,22.90
2023-03-18T09:14:38.696Z,23.50
2023-03-18T09:17:06.333Z,23.90
2023-03-18T09:19:32.934Z,24.40
2023-03-18T09:21:59.505Z,25.00
2023-03-18T09:24:26.140Z,25.20
2023-03-18T09:26:52.888Z,25.60
2023-03-18T09:29:19.498Z,25.60
2023-03-18T09:31:46.058Z,26.00
2023-03-18T09:34:13.599Z,26.30
2023-03-18T09:36:41.110Z,26.20
2023-03-18T09:39:08.921Z,26.30
2023-03-18T09:41:41.348Z,27.30
2023-03-18T09:44:17.724Z,27.60
2023-03-18T09:46:53.354Z,28.10
2023-03-18T09:49:25.892Z,29.10
2023-03-18T09:52:11.393Z,29.50
2023-03-18T09:54:41.307Z,29.20
2023-03-18T09:57:29.626Z,30.10
2023-03-18T10:00:05.377Z,29.80
2023-03-18T10:02:42.354Z,30.60
2023-03-18T10:05:17.999Z,31.60
2023-03-18T10:07:47.380Z,31.90
2023-03-18T10:10:23.868Z,32.60
2023-03-18T10:13:10.730Z,33.00
2023-03-18T10:15:39.788Z,33.10
2023-03-18T10:18:17.023Z,32.50
2023-03-18T10:20:46.489Z,32.60
2023-03-18T10:23:37.413Z,32.70
2023-03-18T10:26:24.310Z,32.40
2023-03-18T10:28:54.479Z,32.50
2023-03-18T10:31:36.502Z,32.50
2023-03-18T10:34:11.490Z,32.60
2023-03-18T10:36:44.241Z,33.70
2023-03-18T10:39:16.381Z,33.30
2023-03-18T10:41:43.958Z,32.60
2023-03-18T10:44:16.716Z,33.20
2023-03-18T10:46:44.214Z,33.40
2023-03-18T10:49:20.820Z,33.30
2023-03-18T10:51:51.003Z,33.70
2023-03-18T10:54:27.062Z,33.30
2023-03-18T10:56:54.044Z,33.20
2023-03-18T10:59:21.611Z,33.30
2023-03-18T11:01:51.194Z,32.30
2023-03-18T11:04:21.661Z,30.20
2023-03-18T11:06:50.206Z,28.30
2023-03-18T11:09:22.013Z,27.10
2023-03-18T11:11:49.705Z,26.70
2023-03-18T11:14:22.266Z,26.40
2023-03-18T11:16:51.855Z,26.10
2023-03-18T11:19:21.452Z,25.80
2023-03-18T11:21:49.002Z,25.60
2023-03-18T11:24:36.404Z,25.30
2023-03-18T11:27:03.571Z,25.20
2023-03-18T11:29:33.053Z,25.40
2023-03-18T11:32:01.350Z,25.20
2023-03-18T11:34:29.224Z,25.10
2023-03-18T11:36:59.143Z,24.80
2023-03-18T11:39:27.329Z,24.70
2023-03-18T11:41:54.248Z,24.50
2023-03-18T11:44:25.912Z,24.60
2023-03-18T11:46:59.879Z,24.70
2023-03-18T11:49:28.221Z,24.70
2023-03-18T11:52:08.353Z,24.60
2023-03-18T11:54:54.867Z,24.90
2023-03-18T11:57:40.470Z,24.90
2023-03-18T12:00:07.160Z,24.80
2023-03-18T12:02:46.248Z,24.60
2023-03-18T12:05:12.826Z,24.60
2023-03-18T12:07:39.354Z,24.50
2023-03-18T12:10:19.706Z,24.60
2023-03-18T12:12:46.634Z,24.50
2023-03-18T12:15:33.382Z,24.70
2023-03-18T12:18:16.536Z,25.00
2023-03-18T12:20:50.712Z,25.20
2023-03-18T12:23:35.942Z,24.80
2023-03-18T12:26:05.228Z,24.60
2023-03-18T12:28:34.546Z,24.60
2023-03-18T12:31:10.394Z,24.60
2023-03-18T12:33:37.078Z,24.80
2023-03-18T12:36:03.915Z,24.70
2023-03-18T12:38:44.395Z,24.60
2023-03-18T12:41:20.419Z,24.50
2023-03-18T12:44:06.023Z,24.40
2023-03-18T12:46:37.801Z,24.30
2023-03-18T12:49:10.272Z,24.10
2023-03-18T12:51:51.126Z,24.10
2023-03-18T12:54:23.851Z,24.20
2023-03-18T12:56:53.469Z,24.20
2023-03-18T12:59:23.313Z,24.10
2023-03-18T13:02:00.513Z,24.10
2023-03-18T13:04:29.895Z,24.20
2023-03-18T13:07:15.687Z,24.30
2023-03-18T13:09:42.810Z,24.50
2023-03-18T13:12:11.507Z,24.70
2023-03-18T13:14:57.256Z,24.60
2023-03-18T13:17:29.654Z,24.30
2023-03-18T13:20:00.249Z,24.30
2023-03-18T13:22:42.249Z,24.50
2023-03-18T13:25:23.713Z,24.40
2023-03-18T13:27:56.412Z,24.40
2023-03-18T13:30:41.841Z,24.10
2023-03-18T13:33:17.532Z,24.30
2023-03-18T13:35:50.803Z,24.50
2023-03-18T13:38:36.207Z,24.50
2023-03-18T13:41:28.687Z,24.20
2023-03-18T13:43:56.411Z,23.90
2023-03-18T13:46:24.411Z,24.00
2023-03-18T13:48:58.931Z,24.20
2023-03-18T13:51:25.524Z,24.50
2023-03-18T13:53:53.710Z,24.40
2023-03-18T13:56:29.988Z,24.10
2023-03-18T13:58:56.582Z,24.00
2023-03-18T14:01:29.320Z,23.90
2023-03-18T14:04:01.875Z,24.00
2023-03-18T14:06:34.352Z,24.10
2023-03-18T14:09:21.031Z,24.00
2023-03-18T14:11:49.823Z,23.80
2023-03-18T14:14:52.830Z,23.40
2023-03-18T14:17:42.367Z,23.00
2023-03-18T14:20:14.826Z,22.50
2023-03-18T14:22:42.464Z,22.20
2023-03-18T14:25:18.188Z,22.00
2023-03-18T14:27:44.769Z,21.80
2023-03-18T14:30:26.630Z,21.60
2023-03-18T14:32:57.509Z,21.40
2023-03-18T14:35:28.633Z,21.20
2023-03-18T14:38:13.946Z,21.20
2023-03-18T14:40:45.913Z,21.20
2023-03-18T14:43:23.884Z,21.10
2023-03-18T14:45:52.092Z,21.10
2023-03-18T14:48:20.529Z,21.00
2023-03-18T14:50:50.901Z,21.10
2023-03-18T14:53:17.495Z,21.20
2023-03-18T14:55:45.034Z,21.20
2023-03-18T14:58:14.579Z,21.20
2023-03-18T15:00:41.780Z,21.20
2023-03-18T15:03:13.160Z,21.30
2023-03-18T15:05:41.472Z,21.40
2023-03-18T15:08:19.751Z,21.40
2023-03-18T15:10:47.711Z,21.40
2023-03-18T15:13:15.372Z,21.40
2023-03-18T15:15:42.692Z,21.40
2023-03-18T15:18:28.492Z,21.30
2023-03-18T15:21:03.678Z,21.40
2023-03-18T15:23:31.955Z,21.50
2023-03-18T15:25:58.491Z,21.60
2023-03-18T15:28:27.710Z,21.70
2023-03-18T15:30:55.957Z,21.70
2023-03-18T15:33:24.014Z,21.70
2023-03-18T15:35:54.975Z,21.70
2023-03-18T15:38:25.731Z,21.50
2023-03-18T15:40:54.767Z,21.40
2023-03-18T15:43:33.036Z,21.30
2023-03-18T15:46:00.995Z,21.10
2023-03-18T15:48:35.000Z,21.10
2023-03-18T15:51:04.218Z,21.00
2023-03-18T15:53:39.182Z,21.00
2023-03-18T15:56:38.366Z,20.90
2023-03-18T15:59:07.105Z,20.90
2023-03-18T16:01:35.073Z,20.90
2023-03-18T16:04:02.464Z,20.90
2023-03-18T16:06:29.061Z,20.90
2023-03-18T16:08:55.656Z,20.70
2023-03-18T16:11:24.161Z,20.60
2023-03-18T16:13:51.522Z,20.70
2023-03-18T16:16:24.801Z,20.70
2023-03-18T16:18:52.691Z,20.50
2023-03-18T16:21:20.658Z,20.60
2023-03-18T16:23:47.936Z,20.60
2023-03-18T16:26:16.167Z,20.70
2023-03-18T16:28:44.545Z,20.70
2023-03-18T16:31:12.784Z,20.60
2023-03-18T16:33:41.436Z,20.60
2023-03-18T16:36:16.557Z,20.30
2023-03-18T16:38:45.812Z,20.10
2023-03-18T16:41:12.348Z,20.00
2023-03-18T16:43:38.928Z,20.00
2023-03-18T16:46:06.015Z,20.20
2023-03-18T16:48:32.933Z,20.10
2023-03-18T16:51:02.458Z,20.00
2023-03-18T16:53:30.006Z,19.80
2023-03-18T16:56:01.278Z,19.80
2023-03-18T16:58:35.624Z,19.60
2023-03-18T17:01:04.633Z,19.50
2023-03-18T17:03:31.593Z,19.40
2023-03-18T17:05:58.322Z,19.60
2023-03-18T17:08:24.972Z,19.50
2023-03-18T17:10:53.849Z,19.50
2023-03-18T17:13:23.089Z,19.40
2023-03-18T17:15:50.432Z,19.40
2023-03-18T17:18:18.423Z,19.00
2023-03-18T17:20:45.696Z,18.60
2023-03-18T17:23:19.545Z,18.30
2023-03-18T17:26:05.012Z,18.00
2023-03-18T17:28:32.370Z,17.80
2023-03-18T17:30:59.928Z,17.70
2023-03-18T17:33:28.973Z,17.60
2023-03-18T17:35:56.432Z,17.50
2023-03-18T17:38:23.017Z,17.40
2023-03-18T17:40:50.460Z,17.20
2023-03-18T17:43:19.080Z,17.00
2023-03-18T17:45:46.063Z,16.80
2023-03-18T17:48:15.409Z,16.60
2023-03-18T17:50:44.173Z,16.50
2023-03-18T17:53:20.696Z,16.30
2023-03-18T17:55:47.264Z,16.20
2023-03-18T17:58:18.064Z,16.10
2023-03-18T18:00:45.121Z,16.00
2023-03-18T18:03:30.737Z,15.90
2023-03-18T18:05:58.445Z,15.80
2023-03-18T18:08:25.598Z,15.80
2023-03-18T18:10:53.121Z,15.70
2023-03-18T18:13:21.701Z,15.70
2023-03-18T18:15:49.288Z,15.60
2023-03-18T18:18:23.018Z,15.50
2023-03-18T18:20:52.356Z,15.40
2023-03-18T18:23:23.707Z,15.30
2023-03-18T18:25:50.592Z,15.30
2023-03-18T18:28:19.598Z,15.20
2023-03-18T18:30:46.431Z,15.00
2023-03-18T18:33:13.238Z,15.00
2023-03-18T18:35:39.858Z,14.90
2023-03-18T18:38:06.647Z,15.30
2023-03-18T18:40:33.366Z,15.20
2023-03-18T18:43:00.000Z,15.20
2023-03-18T18:45:28.120Z,15.10
2023-03-18T18:47:57.452Z,15.10
2023-03-18T18:50:27.479Z,15.00
2023-03-18T18:52:54.754Z,15.00
2023-03-18T18:55:21.529Z,15.00
2023-03-18T18:57:48.326Z,14.90
2023-03-18T19:00:17.339Z,14.90
2023-03-18T19:02:46.089Z,14.90
2023-03-18T19:05:12.931Z,14.80
2023-03-18T19:07:40.148Z,14.80
2023-03-18T19:10:06.998Z,14.80
2023-03-18T19:12:33.605Z,14.80
2023-03-18T19:15:00.196Z,14.70
2023-03-18T19:17:26.741Z,14.70
2023-03-18T19:19:53.451Z,14.70
2023-03-18T19:22:21.245Z,14.70
2023-03-18T19:24:51.198Z,14.70
2023-03-18T19:27:21.180Z,14.70
2023-03-18T19:29:47.998Z,14.80
2023-03-18T19:32:15.685Z,14.70
2023-03-18T19:34:42.232Z,14.70
2023-03-18T19:37:11.117Z,14.70
2023-03-18T19:39:38.130Z,14.70
2023-03-18T19:42:04.739Z,14.70
2023-03-18T19:44:31.479Z,14.60
2023-03-18T19:46:59.291Z,14.50
2023-03-18T19:49:27.305Z,14.50
2023-03-18T19:51:54.577Z,14.40
2023-03-18T19:54:23.654Z,14.60
2023-03-18T19:56:51.237Z,14.30
2023-03-18T19:59:22.850Z,14.20
2023-03-18T20:01:50.436Z,14.10
2023-03-18T20:04:18.954Z,14.10
2023-03-18T20:06:47.465Z,14.10
2023-03-18T20:09:14.844Z,14.10
2023-03-18T20:11:41.458Z,14.00
2023-03-18T20:14:28.296Z,14.00
2023-03-18T20:16:55.447Z,13.90
2023-03-18T20:19:22.029Z,13.90
2023-03-18T20:21:48.791Z,13.70
2023-03-18T20:24:16.950Z,13.60
2023-03-18T20:26:43.549Z,13.50
2023-03-18T20:29:15.968Z,13.30
2023-03-18T20:31:43.248Z,13.20
2023-03-18T20:34:10.634Z,13.10
2023-03-18T20:36:37.912Z,13.10
2023-03-18T20:39:05.757Z,13.00
2023-03-18T20:41:36.749Z,12.90
2023-03-18T20:44:04.285Z,12.90
2023-03-18T20:46:31.218Z,12.70
2023-03-18T20:48:57.893Z,12.70
2023-03-18T20:51:31.141Z,12.60
2023-03-18T20:53:58.015Z,12.50
2023-03-18T20:56:24.957Z,12.40
2023-03-18T20:58:51.645Z,12.40
2023-03-18T21:01:18.383Z,12.30
2023-03-18T21:03:45.341Z,12.20
2023-03-18T21:06:13.576Z,12.20
2023-03-18T21:08:40.218Z,12.10
2023-03-18T21:11:13.148Z,12.10
2023-03-18T21:13:39.677Z,12.10
2023-03-18T21:16:07.629Z,12.10
2023-03-18T21:18:35.646Z,12.10
2023-03-18T21:21:02.334Z,12.00
2023-03-18T21:23:29.765Z,12.00
2023-03-18T21:25:56.556Z,11.90
2023-03-18T21:28:25.441Z,11.90
2023-03-18T21:30:52.985Z,11.90
2023-03-18T21:33:19.636Z,11.90
2023-03-18T21:35:46.266Z,11.80
2023-03-18T21:38:12.969Z,11.70
2023-03-18T21:40:39.732Z,11.70
2023-03-18T21:43:27.254Z,11.70
2023-03-18T21:45:54.151Z,11.60
2023-03-18T21:48:21.307Z,11.40
2023-03-18T21:50:48.103Z,11.40
2023-03-18T21:53:16.213Z,11.40
2023-03-18T21:55:43.092Z,11.30
2023-03-18T21:58:17.037Z,11.20
2023-03-18T22:00:44.816Z,11.20
2023-03-18T22:03:15.634Z,11.20
2023-03-18T22:05:42.674Z,11.10
2023-03-18T22:08:09.302Z,11.00
2023-03-18T22:10:36.310Z,10.90
2023-03-18T22:13:10.113Z,10.90
2023-03-18T22:15:37.832Z,10.80
2023-03-18T22:18:05.360Z,10.70
2023-03-18T22:20:32.880Z,10.60
2023-03-18T22:22:59.470Z,10.60
2023-03-18T22:25:28.242Z,10.50
2023-03-18T22:27:54.826Z,10.50
2023-03-18T22:30:21.553Z,10.50
2023-03-18T22:32:48.261Z,10.40
2023-03-18T22:35:18.960Z,10.40
2023-03-18T22:37:45.826Z,10.30
2023-03-18T22:40:32.745Z,10.30
2023-03-18T22:43:00.454Z,10.20
2023-03-18T22:45:32.179Z,10.20
2023-03-18T22:48:01.965Z,10.10
2023-03-18T22:50:30.230Z,10.10
2023-03-18T22:53:05.535Z,10.10
2023-03-18T22:55:35.241Z,10.00
2023-03-18T22:58:02.006Z,10.00
2023-03-18T23:00:34.421Z,9.90
2023-03-18T23:03:01.550Z,9.90
2023-03-18T23:05:28.119Z,9.80
2023-03-18T23:07:55.096Z,9.80
2023-03-18T23:10:21.955Z,9.70
2023-03-18T23:12:48.550Z,9.70
2023-03-18T23:15:20.709Z,9.60
2023-03-18T23:17:47.326Z,9.60
2023-03-18T23:20:14.923Z,9.50
2023-03-18T23:22:41.810Z,9.50
2023-03-18T23:25:12.141Z,9.50
2023-03-18T23:27:38.700Z,9.40
2023-03-18T23:30:05.801Z,9.40
2023-03-18T23:32:33.508Z,9.40
2023-03-18T23:35:00.179Z,9.40
2023-03-18T23:37:26.770Z,9.30
2023-03-18T23:39:53.362Z,9.30
2023-03-18T23:42:20.756Z,9.30
2023-03-18T23:44:47.733Z,9.30
2023-03-18T23:47:14.974Z,9.30
2023-03-18T23:49:41.640Z,9.30
2023-03-18T23:52:09.524Z,9.30
2023-03-18T23:54:36.521Z,9.30
2023-03-18T23:57:03.787Z,9.30
2023-03-18T23:59:30.704Z,9.30
